Time;durP1;ratioP1;P1;durP2;ratioP2;P2;SDS_P1;SDS_P2;PMS_P1;PMS_P2;Temp;Humidity;BMP_temperature;BMP_pressure;BME280_temperature;BME280_humidity;BME280_pressure;Samples;Min_cycle;Max_cycle;Signal;HPM_P1;HPM_P2
2022/10/04 00:00:50;;;;;;;29.45;20.58;;;11.80;99.90;;;;;;5069873;28;20129;-72
2022/10/04 00:03:26;;;;;;;29.48;21.08;;;11.90;99.90;;;;;;5067411;28;20033;-72
2022/10/04 00:05:55;;;;;;;22.63;17.02;;;11.90;99.90;;;;;;5076005;28;20050;-72
2022/10/04 00:08:48;;;;;;;19.77;15.95;;;12.00;99.90;;;;;;5070436;28;20059;-72
2022/10/04 00:11:36;;;;;;;25.98;17.92;;;12.00;99.90;;;;;;5041370;28;20461;-72
2022/10/04 00:14:08;;;;;;;23.75;17.58;;;12.20;99.90;;;;;;5073702;28;20647;-72
2022/10/04 00:16:39;;;;;;;25.23;16.55;;;12.30;99.90;;;;;;5069114;28;20043;-72
2022/10/04 00:19:14;;;;;;;23.45;14.95;;;12.40;99.90;;;;;;5076538;28;20039;-72
2022/10/04 00:21:55;;;;;;;24.27;16.38;;;12.50;99.90;;;;;;5088591;28;20043;-72
2022/10/04 00:24:23;;;;;;;21.20;14.52;;;12.60;99.90;;;;;;5088660;28;20032;-72
2022/10/04 00:26:48;;;;;;;20.35;14.13;;;12.70;99.90;;;;;;5082687;28;20470;-72
2022/10/04 00:29:34;;;;;;;19.20;12.60;;;12.80;99.90;;;;;;5072056;28;20067;-72
2022/10/04 00:32:11;;;;;;;22.30;14.38;;;12.90;99.90;;;;;;5067885;28;20036;-72
2022/10/04 00:34:45;;;;;;;18.20;12.50;;;12.90;99.90;;;;;;5069061;28;20032;-72
2022/10/04 00:37:16;;;;;;;18.10;12.20;;;13.00;99.90;;;;;;5071019;28;20059;-72
2022/10/04 00:39:46;;;;;;;15.40;10.02;;;13.10;99.90;;;;;;5067947;28;20037;-72
2022/10/04 00:42:21;;;;;;;16.08;10.77;;;13.10;99.90;;;;;;5069157;28;20039;-72
2022/10/04 00:44:54;;;;;;;12.18;8.52;;;13.20;99.90;;;;;;5066444;28;20029;-72
2022/10/04 00:47:20;;;;;;;15.18;9.10;;;13.30;99.90;;;;;;5067723;28;20037;-72
2022/10/04 00:49:49;;;;;;;11.35;5.53;;;13.40;99.90;;;;;;5050984;28;20039;-71
2022/10/04 00:52:20;;;;;;;11.13;5.20;;;13.60;99.90;;;;;;5066551;28;20101;-71
2022/10/04 00:54:50;;;;;;;11.77;4.32;;;13.90;99.90;;;;;;5072311;28;20033;-73
2022/10/04 00:57:27;;;;;;;9.45;4.65;;;14.10;99.90;;;;;;5070134;28;20202;-73
2022/10/04 01:00:05;;;;;;;9.57;4.18;;;14.30;99.90;;;;;;5071100;28;20391;-73
2022/10/04 01:02:56;;;;;;;9.15;3.47;;;14.50;99.90;;;;;;5069317;28;20482;-73
2022/10/04 01:05:26;;;;;;;12.10;4.03;;;14.70;99.90;;;;;;5068633;28;20119;-73
2022/10/04 01:07:57;;;;;;;9.40;3.80;;;14.80;99.90;;;;;;5068552;28;20482;-73
2022/10/04 01:10:29;;;;;;;7.70;3.20;;;14.90;99.90;;;;;;5070674;28;20132;-73
2022/10/04 01:13:11;;;;;;;11.98;3.35;;;15.00;99.90;;;;;;5067754;28;20517;-73
2022/10/04 01:15:49;;;;;;;8.73;3.60;;;15.10;99.90;;;;;;5052344;28;20024;-71
2022/10/04 01:18:28;;;;;;;8.73;3.55;;;15.10;99.90;;;;;;5067507;28;20509;-72
2022/10/04 01:21:02;;;;;;;8.95;3.53;;;15.30;99.90;;;;;;5063061;28;20021;-70
2022/10/04 01:23:56;;;;;;;10.13;4.10;;;15.30;99.90;;;;;;5068053;28;20024;-70
2022/10/04 01:26:33;;;;;;;12.38;4.68;;;15.50;99.90;;;;;;5066540;28;20166;-70
2022/10/04 01:29:05;;;;;;;11.23;4.20;;;15.50;99.90;;;;;;5067533;28;20040;-71
2022/10/04 01:31:33;;;;;;;10.85;4.22;;;15.60;99.90;;;;;;5066540;28;20037;-70
2022/10/04 01:34:00;;;;;;;8.35;3.88;;;15.60;99.90;;;;;;5067815;28;20025;-71
2022/10/04 01:36:27;;;;;;;10.00;3.95;;;15.70;99.90;;;;;;5071754;28;20031;-70
2022/10/04 01:38:53;;;;;;;9.30;3.80;;;15.70;99.90;;;;;;5069394;28;20471;-71
2022/10/04 01:41:38;;;;;;;10.75;3.95;;;15.70;99.90;;;;;;5078030;28;20043;-71
2022/10/04 01:44:08;;;;;;;9.73;4.28;;;15.70;99.90;;;;;;5042759;28;20032;-71
2022/10/04 01:46:36;;;;;;;9.32;3.67;;;15.80;99.90;;;;;;5066593;28;20570;-72
2022/10/04 01:49:06;;;;;;;8.68;4.07;;;15.70;99.90;;;;;;5071391;28;20111;-71
2022/10/04 01:51:42;;;;;;;11.80;5.03;;;15.80;99.90;;;;;;5050374;28;20039;-70
2022/10/04 01:54:19;;;;;;;9.57;5.10;;;15.80;99.90;;;;;;5074247;28;20051;-71
2022/10/04 01:56:49;;;;;;;9.98;4.93;;;15.80;99.90;;;;;;5064819;28;20025;-72
2022/10/04 01:59:30;;;;;;;12.30;5.68;;;15.90;99.90;;;;;;5069958;28;20755;-71
2022/10/04 02:02:01;;;;;;;12.18;6.22;;;15.90;99.90;;;;;;5070412;28;20039;-72
2022/10/04 02:04:33;;;;;;;12.13;6.35;;;15.80;99.90;;;;;;5067364;28;20044;-72
2022/10/04 02:07:00;;;;;;;14.65;6.82;;;15.90;99.90;;;;;;5069136;28;20042;-71
2022/10/04 02:09:33;;;;;;;12.93;6.07;;;15.90;99.90;;;;;;5067362;28;20202;-72
2022/10/04 02:11:59;;;;;;;10.40;5.75;;;15.80;99.90;;;;;;5069346;28;20021;-72
2022/10/04 02:14:31;;;;;;;9.40;4.93;;;15.90;99.90;;;;;;5073142;28;20036;-72
2022/10/04 02:17:00;;;;;;;11.55;5.00;;;15.90;99.90;;;;;;5072943;28;20028;-73
2022/10/04 02:19:36;;;;;;;12.43;5.27;;;15.90;99.90;;;;;;5071830;28;20041;-72
2022/10/04 02:22:04;;;;;;;11.25;4.55;;;15.90;99.90;;;;;;5067214;28;20111;-72
2022/10/04 02:24:33;;;;;;;8.88;4.55;;;15.90;99.90;;;;;;5072431;28;20044;-71
2022/10/04 02:26:59;;;;;;;12.68;4.40;;;15.90;99.90;;;;;;5071226;28;20478;-72
2022/10/04 02:29:25;;;;;;;7.82;4.60;;;15.90;99.90;;;;;;5073346;28;20044;-71
2022/10/04 02:34:36;;;;;;;9.02;3.78;;;15.90;99.90;;;;;;5064733;28;20123;-72
2022/10/04 02:37:04;;;;;;;7.55;3.10;;;15.90;99.90;;;;;;5070494;28;20059;-71
2022/10/04 02:39:39;;;;;;;12.45;3.03;;;15.90;99.90;;;;;;5073760;28;20089;-71
2022/10/04 02:42:40;;;;;;;8.25;2.80;;;15.90;99.90;;;;;;5076365;28;20038;-72
2022/10/04 02:45:23;;;;;;;11.23;2.70;;;15.90;99.90;;;;;;5074472;28;20112;-72
2022/10/04 02:48:03;;;;;;;8.55;2.95;;;15.90;99.90;;;;;;5085044;28;20413;-72
2022/10/04 02:50:49;;;;;;;7.22;2.80;;;15.90;99.90;;;;;;5081217;28;20029;-72
2022/10/04 02:53:42;;;;;;;9.43;2.80;;;15.90;99.90;;;;;;5086888;28;20506;-72
2022/10/04 02:56:11;;;;;;;8.07;2.08;;;15.90;99.90;;;;;;5080603;28;20048;-72
2022/10/04 02:58:39;;;;;;;8.90;2.47;;;15.90;99.90;;;;;;5077726;28;20102;-72
2022/10/04 03:01:04;;;;;;;7.68;2.50;;;15.90;99.90;;;;;;5076404;28;20086;-72
2022/10/04 03:03:33;;;;;;;9.75;3.20;;;15.90;99.90;;;;;;5078092;28;20032;-72
2022/10/04 03:05:59;;;;;;;6.88;2.55;;;15.90;99.90;;;;;;5086221;28;20558;-72
2022/10/04 03:08:27;;;;;;;7.32;2.38;;;15.90;99.90;;;;;;5073703;28;20116;-72
2022/10/04 03:10:54;;;;;;;8.73;2.90;;;15.90;99.90;;;;;;5070157;28;20116;-72
2022/10/04 03:13:20;;;;;;;10.63;2.60;;;15.90;99.90;;;;;;5070869;28;20039;-72
2022/10/04 03:15:48;;;;;;;9.43;2.70;;;16.00;99.90;;;;;;5070584;28;20479;-72
2022/10/04 03:18:15;;;;;;;10.13;2.90;;;16.00;99.90;;;;;;5086023;28;20383;-72
2022/10/04 03:20:41;;;;;;;10.10;3.03;;;15.90;99.90;;;;;;5069582;28;20046;-72
2022/10/04 03:23:10;;;;;;;9.55;2.92;;;16.00;99.90;;;;;;5069193;28;20107;-71
2022/10/04 03:25:58;;;;;;;11.30;2.75;;;16.00;99.90;;;;;;5068025;28;20585;-72
2022/10/04 03:28:25;;;;;;;11.25;2.92;;;16.00;99.90;;;;;;5075589;28;20028;-72
2022/10/04 03:30:51;;;;;;;11.25;3.05;;;16.00;99.90;;;;;;5057896;28;20546;-71
2022/10/04 03:33:20;;;;;;;10.43;2.97;;;16.00;99.90;;;;;;5068746;28;20547;-71
2022/10/04 03:35:52;;;;;;;11.25;3.10;;;16.00;99.90;;;;;;5069081;28;20060;-71
2022/10/04 03:38:18;;;;;;;10.73;4.03;;;16.00;99.90;;;;;;5055754;28;20040;-71
2022/10/04 03:40:59;;;;;;;11.30;3.10;;;16.10;99.90;;;;;;5069228;28;20059;-70
2022/10/04 03:43:30;;;;;;;8.55;2.58;;;16.10;99.90;;;;;;5066404;28;20508;-71
2022/10/04 03:45:57;;;;;;;8.25;3.03;;;16.10;99.90;;;;;;5072267;28;20029;-71
2022/10/04 03:48:52;;;;;;;9.43;2.63;;;16.10;99.90;;;;;;5080614;28;20138;-71
2022/10/04 03:51:20;;;;;;;11.15;2.95;;;16.10;99.90;;;;;;5056294;28;20048;-71
2022/10/04 03:53:58;;;;;;;8.00;2.90;;;16.10;99.90;;;;;;5068533;28;20503;-71
2022/10/04 03:56:33;;;;;;;11.07;2.70;;;16.10;99.90;;;;;;5070172;28;20048;-71
2022/10/04 03:59:02;;;;;;;8.38;2.83;;;16.10;99.90;;;;;;5076566;28;20053;-71
2022/10/04 04:01:40;;;;;;;8.60;3.13;;;16.20;99.90;;;;;;5080709;28;20040;-71
2022/10/04 04:04:17;;;;;;;9.57;3.17;;;16.10;99.90;;;;;;5076194;28;20082;-71
2022/10/04 04:06:49;;;;;;;10.02;3.35;;;16.10;99.90;;;;;;5082049;28;20410;-71
2022/10/04 04:10:10;;;;;;;11.63;3.28;;;16.10;99.90;;;;;;5069092;28;20777;-71
2022/10/04 04:12:53;;;;;;;8.35;3.47;;;16.20;99.90;;;;;;4986908;28;20054;-71
2022/10/04 04:15:20;;;;;;;8.48;3.55;;;16.20;99.90;;;;;;4989256;28;20095;-71
2022/10/04 04:17:50;;;;;;;9.88;3.92;;;16.20;99.90;;;;;;5000685;28;20037;-74
2022/10/04 04:20:24;;;;;;;11.63;4.28;;;16.20;99.90;;;;;;4996056;28;20054;-71
2022/10/04 04:23:09;;;;;;;10.48;3.90;;;16.20;99.90;;;;;;4990108;28;20057;-72
2022/10/04 04:25:38;;;;;;;13.02;4.15;;;16.20;99.90;;;;;;4999574;28;20084;-71
2022/10/04 04:28:36;;;;;;;11.23;4.00;;;16.30;99.90;;;;;;4987333;28;20056;-71
2022/10/04 04:31:07;;;;;;;10.55;3.97;;;16.30;99.90;;;;;;4978703;28;20511;-71
2022/10/04 04:33:43;;;;;;;11.95;3.85;;;16.30;99.90;;;;;;4969512;28;20935;-71
2022/10/04 04:36:15;;;;;;;6.65;3.92;;;16.30;99.90;;;;;;4991161;28;20524;-72
2022/10/04 04:41:30;;;;;;;11.75;4.03;;;16.30;99.90;;;;;;4984449;28;20472;-72
2022/10/04 04:43:57;;;;;;;10.07;4.20;;;16.30;99.90;;;;;;4986567;28;20164;-71
2022/10/04 04:46:23;;;;;;;10.80;4.18;;;16.30;99.90;;;;;;4999707;28;20059;-72
2022/10/04 04:48:56;;;;;;;9.55;4.60;;;16.30;99.90;;;;;;5066773;28;20082;-72
2022/10/04 04:51:23;;;;;;;11.45;4.20;;;16.30;99.90;;;;;;5067820;28;20037;-72
2022/10/04 04:53:51;;;;;;;12.73;4.47;;;16.30;99.90;;;;;;5067833;28;20044;-72
2022/10/04 04:56:22;;;;;;;11.15;3.92;;;16.30;99.90;;;;;;5053265;28;20032;-72
2022/10/04 04:58:50;;;;;;;8.50;4.18;;;16.30;99.90;;;;;;5071054;28;20733;-71
2022/10/04 05:01:40;;;;;;;11.13;3.80;;;16.30;99.90;;;;;;5069870;28;20098;-72
2022/10/04 05:04:11;;;;;;;13.80;3.92;;;16.30;99.90;;;;;;5063220;28;20077;-72
2022/10/04 05:06:40;;;;;;;9.15;4.03;;;16.30;99.90;;;;;;5053656;28;20028;-72
2022/10/04 05:09:20;;;;;;;10.82;4.05;;;16.30;99.90;;;;;;5054695;28;20075;-71
2022/10/04 05:11:47;;;;;;;12.02;4.40;;;16.30;99.90;;;;;;5071181;28;20036;-71
2022/10/04 05:14:15;;;;;;;14.90;4.40;;;16.40;99.90;;;;;;5065320;28;20063;-72
2022/10/04 05:16:48;;;;;;;10.48;4.75;;;16.40;99.90;;;;;;5066269;28;20044;-72
2022/10/04 05:19:21;;;;;;;10.50;4.55;;;16.40;99.90;;;;;;5067794;28;20087;-72
2022/10/04 05:21:48;;;;;;;13.18;5.22;;;16.40;99.90;;;;;;5067348;28;20444;-71
2022/10/04 05:24:33;;;;;;;11.10;5.15;;;16.40;99.90;;;;;;5066831;28;20108;-71
2022/10/04 05:27:05;;;;;;;10.20;5.55;;;16.40;99.90;;;;;;5066679;28;20101;-72
2022/10/04 05:29:34;;;;;;;12.05;5.03;;;16.40;99.90;;;;;;5067388;28;20379;-73
2022/10/04 05:32:32;;;;;;;10.38;5.28;;;16.40;99.90;;;;;;5067414;28;20047;-73
2022/10/04 05:34:59;;;;;;;10.63;4.70;;;16.40;99.90;;;;;;5066901;28;20128;-72
2022/10/04 05:37:52;;;;;;;12.88;5.03;;;16.50;99.90;;;;;;5066725;28;20039;-72
2022/10/04 05:40:36;;;;;;;12.30;3.72;;;16.40;99.90;;;;;;5067086;28;20032;-72
2022/10/04 05:43:18;;;;;;;7.68;2.30;;;16.30;99.90;;;;;;5068740;28;20031;-71
2022/10/04 05:45:44;;;;;;;7.18;2.30;;;16.30;99.90;;;;;;5050143;28;20048;-72
2022/10/04 05:48:12;;;;;;;7.68;2.38;;;16.20;99.90;;;;;;5066867;28;20111;-72
2022/10/04 05:50:41;;;;;;;6.22;1.73;;;16.20;99.90;;;;;;5071849;28;20067;-70
2022/10/04 05:53:34;;;;;;;8.88;2.15;;;16.10;99.90;;;;;;5067197;28;20467;-72
2022/10/04 05:56:22;;;;;;;7.70;1.80;;;16.10;99.90;;;;;;5071183;28;20024;-72
2022/10/04 05:59:02;;;;;;;9.98;2.25;;;16.10;99.90;;;;;;5072583;28;20102;-72
2022/10/04 06:01:41;;;;;;;6.38;2.25;;;16.00;99.90;;;;;;5064293;28;20039;-71
2022/10/04 06:04:19;;;;;;;6.53;1.50;;;15.90;99.90;;;;;;5072172;28;20482;-72
2022/10/04 06:06:56;;;;;;;5.40;1.42;;;15.90;99.90;;;;;;5082596;28;20067;-72
2022/10/04 06:09:45;;;;;;;5.72;1.80;;;15.90;99.90;;;;;;5091503;28;20044;-73
2022/10/04 06:12:32;;;;;;;8.55;1.83;;;15.90;99.90;;;;;;5070246;28;20134;-72
2022/10/04 06:15:19;;;;;;;8.35;1.85;;;15.80;99.90;;;;;;5069359;28;20024;-72
2022/10/04 06:17:56;;;;;;;7.45;1.50;;;15.80;99.90;;;;;;5085477;28;20036;-72
2022/10/04 06:20:41;;;;;;;7.20;1.65;;;15.80;99.90;;;;;;5077271;28;20053;-72
2022/10/04 06:23:14;;;;;;;5.95;1.38;;;15.80;99.90;;;;;;5065751;28;20117;-72
2022/10/04 06:26:10;;;;;;;4.72;1.35;;;15.70;99.90;;;;;;5068792;28;20032;-72
2022/10/04 06:28:38;;;;;;;8.65;2.03;;;15.70;99.90;;;;;;5067599;28;20049;-72
2022/10/04 06:31:24;;;;;;;7.20;1.48;;;15.70;99.90;;;;;;5068464;28;20060;-72
2022/10/04 06:33:57;;;;;;;6.00;1.88;;;15.70;99.90;;;;;;5063354;28;20027;-72
2022/10/04 06:36:35;;;;;;;5.80;1.25;;;15.70;99.90;;;;;;5065961;28;20038;-72
2022/10/04 06:39:05;;;;;;;4.22;1.42;;;15.70;99.90;;;;;;5069994;28;20032;-72
2022/10/04 06:41:56;;;;;;;7.97;1.80;;;15.60;99.90;;;;;;5067511;28;20033;-72
2022/10/04 06:44:35;;;;;;;5.68;1.65;;;15.60;99.90;;;;;;5065197;28;20036;-72
2022/10/04 06:47:22;;;;;;;7.13;1.80;;;15.60;99.90;;;;;;5067386;28;20095;-72
2022/10/04 06:50:13;;;;;;;5.47;1.70;;;15.60;99.90;;;;;;5067072;28;20478;-73
2022/10/04 06:52:38;;;;;;;6.88;1.92;;;15.60;99.90;;;;;;5052529;28;20048;-72
2022/10/04 06:55:27;;;;;;;7.15;1.90;;;15.60;99.90;;;;;;5057301;28;20117;-72
2022/10/04 06:58:07;;;;;;;7.10;1.75;;;15.60;99.90;;;;;;5062927;28;20033;-72
2022/10/04 07:00:55;;;;;;;6.53;1.67;;;15.60;99.90;;;;;;5070124;28;20036;-72
2022/10/04 07:03:38;;;;;;;5.75;1.67;;;15.60;99.90;;;;;;5043969;28;20036;-72
2022/10/04 07:06:06;;;;;;;6.20;1.48;;;15.60;99.90;;;;;;5067166;28;20024;-71
2022/10/04 07:08:48;;;;;;;5.75;1.55;;;15.70;99.90;;;;;;5075925;28;20550;-72
2022/10/04 07:11:22;;;;;;;6.20;1.70;;;15.70;99.90;;;;;;5069204;28;20090;-71
2022/10/04 07:14:04;;;;;;;4.03;1.23;;;15.80;99.90;;;;;;5064398;28;20029;-72
2022/10/04 07:16:48;;;;;;;3.90;1.35;;;15.80;99.90;;;;;;5062701;28;20040;-72
2022/10/04 07:19:29;;;;;;;4.35;1.40;;;15.90;99.90;;;;;;5061894;28;20032;-72
2022/10/04 07:22:07;;;;;;;6.88;1.60;;;15.90;99.90;;;;;;5055731;28;20040;-72
2022/10/04 07:25:17;;;;;;;4.97;1.38;;;15.90;99.90;;;;;;5053222;28;20075;-72
2022/10/04 07:30:57;;;;;;;9.10;1.88;;;15.90;99.90;;;;;;5002323;28;20095;-72
2022/10/04 07:33:26;;;;;;;5.43;1.85;;;15.80;99.90;;;;;;5004658;28;20710;-72
2022/10/04 07:36:03;;;;;;;6.53;1.85;;;15.90;99.90;;;;;;5004107;28;20034;-71
2022/10/04 07:38:33;;;;;;;5.50;2.03;;;15.90;99.90;;;;;;4994730;28;20097;-71
2022/10/04 07:41:19;;;;;;;6.38;2.28;;;16.10;99.90;;;;;;5004765;28;20197;-72
2022/10/04 07:43:50;;;;;;;6.35;1.75;;;16.10;99.90;;;;;;5000776;28;20049;-71
2022/10/04 07:46:42;;;;;;;6.93;1.60;;;16.20;99.90;;;;;;5003216;28;20036;-71
2022/10/04 07:49:19;;;;;;;5.05;1.70;;;16.30;99.90;;;;;;5001645;28;20038;-71
2022/10/04 07:52:12;;;;;;;4.85;1.48;;;16.40;99.90;;;;;;5004536;28;20113;-71
2022/10/04 07:54:45;;;;;;;7.10;2.03;;;16.50;99.90;;;;;;5003717;28;20029;-70
2022/10/04 07:57:10;;;;;;;5.50;1.38;;;16.60;99.90;;;;;;5005948;28;20070;-72
2022/10/04 07:59:51;;;;;;;5.18;1.20;;;16.60;99.90;;;;;;5002992;28;20511;-72
2022/10/04 08:02:40;;;;;;;4.78;1.42;;;16.70;99.90;;;;;;5014956;28;20042;-72
2022/10/04 08:05:06;;;;;;;3.75;0.90;;;16.70;99.90;;;;;;5064304;28;20075;-72
2022/10/04 08:07:55;;;;;;;4.32;1.38;;;16.80;99.90;;;;;;5047449;28;20061;-72
2022/10/04 08:10:55;;;;;;;4.83;1.07;;;16.80;99.90;;;;;;5048702;28;20064;-75
2022/10/04 08:13:23;;;;;;;;;;;16.80;99.90;;;;;;5058076;28;20044;-72
2022/10/04 08:15:51;;;;;;;3.50;1.00;;;16.90;99.90;;;;;;5067209;28;20354;-72
2022/10/04 08:19:03;;;;;;;6.00;1.40;;;16.90;99.90;;;;;;5058793;28;20111;-72
2022/10/04 08:21:54;;;;;;;8.95;1.50;;;16.80;99.90;;;;;;5058429;28;20078;-72
2022/10/04 08:24:31;;;;;;;3.88;1.25;;;16.80;99.90;;;;;;5048919;28;20037;-72
2022/10/04 08:27:20;;;;;;;7.72;1.48;;;16.80;99.90;;;;;;5042202;28;20090;-72
2022/10/04 08:30:25;;;;;;;5.90;1.60;;;16.90;99.90;;;;;;5052924;28;20033;-72
2022/10/04 08:33:17;;;;;;;4.68;1.80;;;16.80;99.90;;;;;;5007573;28;20033;-73
2022/10/04 08:36:23;;;;;;;6.30;1.70;;;16.80;99.90;;;;;;5014043;28;20069;-73
2022/10/04 08:38:58;;;;;;;5.78;1.42;;;16.80;99.90;;;;;;5000822;28;20153;-73
2022/10/04 08:41:32;;;;;;;6.53;1.45;;;16.70;99.90;;;;;;4998649;28;20076;-71
2022/10/04 08:44:30;;;;;;;5.30;1.50;;;16.60;99.90;;;;;;5004293;28;20046;-72
2022/10/04 08:47:16;;;;;;;6.78;1.30;;;16.60;99.90;;;;;;5004948;28;20033;-73
2022/10/04 08:49:51;;;;;;;4.55;1.27;;;16.60;99.90;;;;;;5005725;28;20048;-72
2022/10/04 08:52:37;;;;;;;6.65;1.42;;;16.50;99.90;;;;;;5004852;28;20042;-73
2022/10/04 08:55:33;;;;;;;4.57;1.30;;;16.50;99.90;;;;;;5002806;28;20057;-72
2022/10/04 08:58:35;;;;;;;3.35;1.00;;;16.50;99.90;;;;;;4997621;28;20834;-73
2022/10/04 09:01:24;;;;;;;6.20;1.50;;;16.50;99.90;;;;;;4991128;28;20480;-72
2022/10/04 09:04:00;;;;;;;5.80;1.48;;;16.60;99.90;;;;;;5038745;28;20036;-72
2022/10/04 09:06:35;;;;;;;7.03;1.30;;;16.60;99.90;;;;;;5066815;28;20045;-70
2022/10/04 09:09:33;;;;;;;4.28;1.00;;;16.60;99.90;;;;;;5050089;28;20049;-72
2022/10/04 09:12:34;;;;;;;5.30;1.00;;;16.60;99.90;;;;;;5049146;28;20446;-70
2022/10/04 09:15:11;;;;;;;4.32;0.88;;;16.70;99.90;;;;;;5050616;28;20032;-71
2022/10/04 09:18:01;;;;;;;3.97;1.10;;;16.80;99.90;;;;;;5050311;28;20061;-71
2022/10/04 09:20:48;;;;;;;4.32;0.80;;;16.80;99.90;;;;;;5044448;28;20044;-72
2022/10/04 09:23:29;;;;;;;3.67;0.90;;;16.90;99.90;;;;;;5052762;28;20609;-71
2022/10/04 09:26:32;;;;;;;4.38;0.75;;;16.90;99.90;;;;;;5052198;28;20116;-71
2022/10/04 09:29:25;;;;;;;4.78;0.90;;;17.10;99.90;;;;;;5048508;28;20072;-72
2022/10/04 09:32:20;;;;;;;5.82;1.00;;;17.20;99.90;;;;;;5051630;28;20044;-72
2022/10/04 09:35:15;;;;;;;4.20;1.00;;;17.30;99.90;;;;;;5048375;28;20032;-72
2022/10/04 09:38:01;;;;;;;3.65;0.98;;;17.50;99.90;;;;;;5047974;28;20033;-71
2022/10/04 09:40:37;;;;;;;2.35;0.70;;;17.50;99.90;;;;;;5051474;28;20150;-71
2022/10/04 09:43:26;;;;;;;4.65;0.80;;;17.80;99.90;;;;;;5030338;28;20442;-71
2022/10/04 09:46:02;;;;;;;3.80;0.90;;;17.90;99.90;;;;;;5000683;28;20048;-70
2022/10/04 09:48:31;;;;;;;4.38;0.90;;;18.00;99.90;;;;;;5002208;28;20042;-73
2022/10/04 09:51:15;;;;;;;7.07;1.20;;;18.30;99.90;;;;;;4996158;28;20092;-71
2022/10/04 09:53:52;;;;;;;4.60;0.90;;;18.70;99.90;;;;;;4997275;28;20627;-71
2022/10/04 09:56:26;;;;;;;5.78;1.10;;;19.00;99.90;;;;;;4995540;28;20037;-73
2022/10/04 09:59:13;;;;;;;4.88;0.90;;;18.90;99.90;;;;;;4972777;28;20030;-73
2022/10/04 10:02:04;;;;;;;6.78;1.25;;;18.80;99.90;;;;;;4997691;28;20038;-72
2022/10/04 10:04:58;;;;;;;5.28;1.00;;;18.60;99.90;;;;;;4996176;28;20613;-71
2022/10/04 10:07:57;;;;;;;7.68;1.15;;;18.30;99.90;;;;;;4983821;28;20049;-72
2022/10/04 10:14:35;;;;;;;7.47;1.63;;;18.20;99.90;;;;;;4920612;29;20075;-72
2022/10/04 10:17:22;;;;;;;5.43;1.60;;;18.30;99.90;;;;;;4922748;29;20043;-73
2022/10/04 10:20:22;;;;;;;5.43;1.00;;;18.80;99.90;;;;;;4924192;29;20044;-72
2022/10/04 10:23:03;;;;;;;4.32;1.27;;;19.20;99.90;;;;;;4950984;28;20046;-72
2022/10/04 10:25:37;;;;;;;4.53;1.00;;;19.10;99.90;;;;;;4970584;28;20042;-74
2022/10/04 10:28:27;;;;;;;3.05;0.80;;;19.60;99.90;;;;;;4971770;28;20043;-74
2022/10/04 10:31:07;;;;;;;3.33;0.75;;;19.50;99.90;;;;;;4965756;28;20039;-72
2022/10/04 10:34:26;;;;;;;3.70;0.80;;;18.90;99.90;;;;;;4968235;28;20129;-74
2022/10/04 10:37:08;;;;;;;2.25;0.70;;;18.50;99.90;;;;;;4977842;28;20477;-72
2022/10/04 10:39:58;;;;;;;3.33;0.90;;;18.20;99.90;;;;;;4957839;28;20401;-72
2022/10/04 10:43:01;;;;;;;3.35;0.90;;;18.00;99.90;;;;;;4970433;28;20039;-74
2022/10/04 10:45:34;;;;;;;4.68;0.80;;;17.90;99.90;;;;;;4970675;28;20034;-72
2022/10/04 10:48:30;;;;;;;2.60;0.80;;;17.70;99.90;;;;;;5002963;28;20400;-71
2022/10/04 10:51:22;;;;;;;4.88;0.80;;;17.60;99.90;;;;;;5052129;28;20044;-72
2022/10/04 10:54:30;;;;;;;4.15;1.00;;;17.50;99.90;;;;;;5051821;28;20047;-74
2022/10/04 10:57:16;;;;;;;5.38;1.00;;;17.50;99.90;;;;;;5036324;28;20090;-72
2022/10/04 11:00:20;;;;;;;4.10;1.15;;;17.40;99.90;;;;;;5053479;28;20783;-72
2022/10/04 11:03:11;;;;;;;5.45;1.10;;;17.40;99.90;;;;;;5053482;28;20059;-73
2022/10/04 11:06:14;;;;;;;6.00;1.10;;;17.30;99.90;;;;;;5053819;28;20041;-73
2022/10/04 11:09:18;;;;;;;5.78;1.20;;;17.30;99.90;;;;;;5042836;28;20044;-71
2022/10/04 11:12:22;;;;;;;3.55;1.00;;;17.30;99.90;;;;;;5040807;28;20098;-71
2022/10/04 11:15:06;;;;;;;5.88;1.00;;;17.30;99.90;;;;;;5053353;28;20032;-72
2022/10/04 11:17:46;;;;;;;5.32;1.10;;;17.40;99.90;;;;;;5061424;28;20577;-71
2022/10/04 11:20:48;;;;;;;5.85;1.00;;;17.40;99.90;;;;;;5051165;28;20051;-73
2022/10/04 11:23:36;;;;;;;4.43;1.15;;;17.50;99.90;;;;;;5055183;28;20040;-72
2022/10/04 11:26:18;;;;;;;5.47;0.90;;;17.50;99.90;;;;;;5055254;28;20025;-72
2022/10/04 11:28:57;;;;;;;6.57;1.25;;;17.60;99.90;;;;;;5047968;28;20025;-72
2022/10/04 11:32:09;;;;;;;5.97;1.38;;;17.60;99.90;;;;;;5052557;28;20052;-72
2022/10/04 11:34:59;;;;;;;4.07;1.05;;;17.60;99.90;;;;;;5054716;28;20048;-72
2022/10/04 11:37:34;;;;;;;4.38;0.90;;;17.70;99.90;;;;;;5050402;28;20029;-72
2022/10/04 11:40:33;;;;;;;4.88;1.00;;;17.70;99.90;;;;;;5041574;28;20190;-71
2022/10/04 11:43:20;;;;;;;5.28;0.90;;;17.70;99.90;;;;;;5048233;28;20036;-72
2022/10/04 11:46:17;;;;;;;4.68;1.05;;;17.80;99.90;;;;;;5049781;28;20048;-74
2022/10/04 11:48:52;;;;;;;2.92;0.98;;;17.80;99.90;;;;;;5048437;28;20055;-71
2022/10/04 11:51:43;;;;;;;4.40;1.27;;;17.80;99.90;;;;;;5049367;28;20693;-71
2022/10/04 11:54:17;;;;;;;8.93;1.33;;;18.00;99.90;;;;;;5026828;28;20128;-72
2022/10/04 11:57:11;;;;;;;3.47;1.02;;;18.00;99.90;;;;;;5059347;28;20112;-72
2022/10/04 11:59:46;;;;;;;3.58;0.90;;;18.10;99.90;;;;;;5049768;28;20059;-73
2022/10/04 12:02:39;;;;;;;8.45;1.52;;;18.20;99.90;;;;;;5060814;28;20041;-72
2022/10/04 12:05:45;;;;;;;6.80;0.93;;;18.40;99.90;;;;;;5068874;28;20082;-72
2022/10/04 12:08:32;;;;;;;6.53;1.17;;;18.60;99.90;;;;;;5068154;28;20571;-72
2022/10/04 12:14:28;;;;;;;4.25;1.30;;;18.50;99.90;;;;;;5064688;28;20047;-73
2022/10/04 12:17:27;;;;;;;4.95;0.90;;;18.40;99.90;;;;;;5066703;28;20108;-72
2022/10/04 12:20:27;;;;;;;8.30;1.27;;;18.30;99.90;;;;;;5068140;28;20044;-72
2022/10/04 12:23:23;;;;;;;6.07;1.42;;;18.20;99.90;;;;;;5054163;28;20033;-73
2022/10/04 12:26:20;;;;;;;3.22;1.08;;;18.10;99.90;;;;;;5046071;28;20405;-71
2022/10/04 12:28:57;;;;;;;6.43;1.20;;;18.00;99.90;;;;;;5068601;28;20112;-72
2022/10/04 12:31:29;;;;;;;6.00;1.10;;;18.00;99.90;;;;;;5047154;28;20099;-72
2022/10/04 12:34:16;;;;;;;6.10;0.90;;;17.90;99.90;;;;;;5055940;28;20057;-72
2022/10/04 12:36:56;;;;;;;5.50;1.17;;;17.90;99.90;;;;;;5058162;28;20403;-72
2022/10/04 12:39:53;;;;;;;5.18;1.13;;;17.90;99.90;;;;;;5068267;28;20067;-72
2022/10/04 12:42:45;;;;;;;8.07;1.40;;;18.00;99.90;;;;;;5058582;28;20033;-74
2022/10/04 12:45:47;;;;;;;4.75;1.10;;;17.90;99.90;;;;;;5045153;28;20033;-72
2022/10/04 12:48:31;;;;;;;4.18;1.10;;;17.90;99.90;;;;;;5068173;28;20037;-72
2022/10/04 12:51:20;;;;;;;4.28;1.27;;;17.80;99.90;;;;;;5067916;28;20032;-72
2022/10/04 12:54:00;;;;;;;3.73;0.90;;;17.70;99.90;;;;;;5060165;28;20077;-73
2022/10/04 12:56:31;;;;;;;6.20;1.23;;;17.60;99.90;;;;;;5052301;28;20301;-72
2022/10/04 12:59:15;;;;;;;6.70;1.50;;;17.60;99.90;;;;;;5060151;28;20059;-72
2022/10/04 13:01:47;;;;;;;5.53;1.38;;;17.50;99.90;;;;;;5049401;28;20033;-72
2022/10/04 13:04:38;;;;;;;7.80;1.30;;;17.50;99.90;;;;;;5051997;28;20486;-72
2022/10/04 13:07:09;;;;;;;7.38;1.52;;;17.40;99.90;;;;;;5050464;28;20056;-76
2022/10/04 13:09:56;;;;;;;5.95;1.23;;;17.30;99.90;;;;;;5049035;28;20029;-71
2022/10/04 13:13:10;;;;;;;4.57;1.08;;;17.20;99.90;;;;;;5046934;28;20032;-70
2022/10/04 13:15:35;;;;;;;8.73;1.40;;;17.20;99.90;;;;;;5052192;28;20044;-71
2022/10/04 13:18:28;;;;;;;6.80;1.02;;;17.10;99.90;;;;;;5065056;28;20082;-70
2022/10/04 13:21:10;;;;;;;5.70;1.60;;;17.20;99.90;;;;;;4986039;28;20060;-71
2022/10/04 13:23:55;;;;;;;5.43;1.30;;;17.30;99.90;;;;;;4969481;28;20050;-70
2022/10/04 13:26:21;;;;;;;5.18;1.20;;;17.30;99.90;;;;;;4985701;28;20042;-69
2022/10/04 13:28:50;;;;;;;7.05;1.60;;;17.30;99.90;;;;;;4981560;28;20448;-72
2022/10/04 13:31:37;;;;;;;4.90;1.25;;;17.40;99.90;;;;;;4985461;28;20046;-71
2022/10/04 13:34:34;;;;;;;4.90;1.17;;;17.50;99.90;;;;;;4985810;28;20038;-72
2022/10/04 13:37:32;;;;;;;5.68;1.83;;;17.50;99.90;;;;;;4985737;28;20093;-71
2022/10/04 13:40:23;;;;;;;4.70;1.13;;;17.50;99.90;;;;;;4985415;28;20493;-70
2022/10/04 13:43:11;;;;;;;7.45;1.25;;;17.60;99.90;;;;;;4985432;28;20046;-70
2022/10/04 13:46:01;;;;;;;8.38;1.70;;;17.70;99.90;;;;;;4982453;28;20042;-70
2022/10/04 13:49:06;;;;;;;5.57;1.23;;;17.80;99.90;;;;;;4978930;28;20531;-71
2022/10/04 13:51:31;;;;;;;7.82;1.33;;;17.80;99.90;;;;;;4970163;28;20049;-73
2022/10/04 13:57:36;;;;;;;7.00;1.42;;;17.60;99.90;;;;;;5005695;28;20089;-75
2022/10/04 14:00:14;;;;;;;4.82;1.00;;;17.40;99.90;;;;;;5049253;28;20033;-72
2022/10/04 14:03:28;;;;;;;8.38;1.10;;;17.30;99.90;;;;;;5061981;28;20067;-72
2022/10/04 14:06:03;;;;;;;6.50;1.23;;;17.20;99.90;;;;;;5050503;28;20051;-72
2022/10/04 14:08:59;;;;;;;6.20;1.20;;;17.10;99.90;;;;;;5051165;28;20098;-73
2022/10/04 14:11:55;;;;;;;6.82;1.05;;;17.10;99.90;;;;;;5045022;28;20051;-72